createdAt,value
2023-02-01T00:00:53.060Z,5.48
2023-02-01T00:01:53.087Z,5.48
2023-02-01T00:02:53.114Z,5.46
2023-02-01T00:03:53.081Z,5.46
2023-02-01T00:04:53.026Z,5.48
2023-02-01T00:05:53.026Z,5.48
2023-02-01T00:06:53.009Z,5.45
2023-02-01T00:07:53.007Z,5.42
2023-02-01T00:08:52.981Z,5.40
2023-02-01T00:09:52.985Z,5.39
2023-02-01T00:10:53.009Z,5.36
2023-02-01T00:11:52.988Z,5.31
2023-02-01T00:12:53.069Z,5.31
2023-02-01T00:13:52.932Z,5.28
2023-02-01T00:14:53.012Z,5.25
2023-02-01T00:15:52.965Z,5.24
2023-02-01T00:16:53.108Z,5.20
2023-02-01T00:17:52.949Z,5.20
2023-02-01T00:18:52.886Z,5.18
2023-02-01T00:19:52.892Z,5.18
2023-02-01T00:20:52.890Z,5.18
2023-02-01T00:21:52.873Z,5.20
2023-02-01T00:22:52.834Z,5.20
2023-02-01T00:23:52.861Z,5.18
2023-02-01T00:24:52.861Z,5.20
2023-02-01T00:25:52.832Z,5.21
2023-02-01T00:26:52.995Z,5.18
2023-02-01T00:27:52.784Z,5.25
2023-02-01T00:28:52.767Z,5.33
2023-02-01T00:29:52.810Z,5.35
2023-02-01T00:30:52.843Z,5.35
2023-02-01T00:31:52.932Z,5.35
2023-02-01T00:32:52.754Z,5.35
2023-02-01T00:33:52.770Z,5.35
2023-02-01T00:34:52.741Z,5.33
2023-02-01T00:35:52.731Z,5.31
2023-02-01T00:36:52.706Z,5.31
2023-02-01T00:37:52.685Z,5.30
2023-02-01T00:38:52.679Z,5.28
2023-02-01T00:39:52.705Z,5.31
2023-02-01T00:40:52.672Z,5.33
2023-02-01T00:41:52.636Z,5.33
2023-02-01T00:42:52.643Z,5.35
2023-02-01T00:43:52.653Z,5.35
2023-02-01T00:44:52.649Z,5.36
2023-02-01T00:45:52.604Z,5.39
2023-02-01T00:46:52.676Z,5.36
2023-02-01T00:47:52.621Z,5.35
2023-02-01T00:48:52.605Z,5.35
2023-02-01T00:49:52.583Z,5.36
2023-02-01T00:50:52.565Z,5.33
2023-02-01T00:51:52.541Z,5.31
2023-02-01T00:52:52.539Z,5.30
2023-02-01T00:53:52.563Z,5.30
2023-02-01T00:54:52.526Z,5.28
2023-02-01T00:55:52.522Z,5.31
2023-02-01T00:56:52.496Z,5.33
2023-02-01T00:57:52.499Z,5.28
2023-02-01T00:58:52.493Z,5.30
2023-02-01T00:59:52.511Z,5.30
2023-02-01T01:00:52.486Z,5.30
2023-02-01T01:01:52.499Z,5.30
2023-02-01T01:02:52.579Z,5.31
2023-02-01T01:03:52.463Z,5.30
2023-02-01T01:04:52.442Z,5.25
2023-02-01T01:05:52.453Z,5.24
2023-02-01T01:06:52.427Z,5.24
2023-02-01T01:07:52.398Z,5.21
2023-02-01T01:08:52.644Z,5.20
2023-02-01T01:09:52.395Z,5.17
2023-02-01T01:10:52.387Z,5.15
2023-02-01T01:11:52.362Z,5.13
2023-02-01T01:12:52.362Z,5.10
2023-02-01T01:13:52.352Z,5.06
2023-02-01T01:14:52.349Z,5.07
2023-02-01T01:15:52.381Z,5.04
2023-02-01T01:16:52.307Z,5.04
2023-02-01T01:17:52.296Z,5.03
2023-02-01T01:18:52.337Z,5.04
2023-02-01T01:19:52.267Z,5.04
2023-02-01T01:20:52.238Z,5.06
2023-02-01T01:21:52.305Z,5.02
2023-02-01T01:22:52.253Z,5.02
2023-02-01T01:23:52.233Z,5.00
2023-02-01T01:24:52.241Z,5.03
2023-02-01T01:25:52.200Z,5.03
2023-02-01T01:26:52.265Z,5.02
2023-02-01T01:27:52.172Z,4.99
2023-02-01T01:28:52.216Z,5.00
2023-02-01T01:29:52.179Z,5.00
2023-02-01T01:30:52.206Z,4.96
2023-02-01T01:31:52.190Z,4.94
2023-02-01T01:32:52.123Z,4.94
2023-02-01T01:33:52.185Z,4.92
2023-02-01T01:34:52.165Z,4.92
2023-02-01T01:35:52.121Z,4.92
2023-02-01T01:36:52.077Z,4.94
2023-02-01T01:37:52.091Z,4.97
2023-02-01T01:38:52.105Z,4.94
2023-02-01T01:39:52.060Z,4.96
2023-02-01T01:40:52.059Z,4.97
2023-02-01T01:41:52.025Z,4.97
2023-02-01T01:42:52.042Z,5.00
2023-02-01T01:43:52.081Z,4.99
2023-02-01T01:44:52.000Z,5.00
2023-02-01T01:45:52.001Z,4.99
2023-02-01T01:46:52.053Z,4.99
2023-02-01T01:47:51.989Z,4.97
2023-02-01T01:48:51.981Z,4.97
2023-02-01T01:49:51.972Z,4.97
2023-02-01T01:50:51.953Z,4.96
2023-02-01T01:51:51.943Z,4.99
2023-02-01T01:52:51.934Z,4.97
2023-02-01T01:53:51.923Z,4.94
2023-02-01T01:54:51.930Z,4.97
2023-02-01T01:55:51.914Z,4.99
2023-02-01T01:56:51.881Z,5.02
2023-02-01T01:57:51.982Z,5.03
2023-02-01T01:58:51.939Z,5.00
2023-02-01T01:59:51.882Z,4.99
2023-02-01T02:00:51.882Z,4.99
2023-02-01T02:01:51.897Z,5.00
2023-02-01T02:02:51.820Z,5.02
2023-02-01T02:03:51.846Z,5.03
2023-02-01T02:04:51.856Z,5.02
2023-02-01T02:05:51.782Z,5.03
2023-02-01T02:06:51.805Z,5.03
2023-02-01T02:07:51.780Z,5.06
2023-02-01T02:08:51.797Z,5.09
2023-02-01T02:10:00.481Z,5.10
2023-02-01T02:10:53.559Z,5.09
2023-02-01T02:11:51.753Z,5.12
2023-02-01T02:12:51.716Z,5.12
2023-02-01T02:13:51.740Z,5.12
2023-02-01T02:14:51.711Z,5.12
2023-02-01T02:15:51.704Z,5.15
2023-02-01T02:16:52.447Z,5.17
2023-02-01T02:17:51.674Z,5.13
2023-02-01T02:18:51.694Z,5.15
2023-02-01T02:19:51.693Z,5.13
2023-02-01T02:20:51.637Z,5.15
2023-02-01T02:21:51.621Z,5.15
2023-02-01T02:22:51.634Z,5.13
2023-02-01T02:23:51.655Z,5.15
2023-02-01T02:24:51.615Z,5.15
2023-02-01T02:25:51.606Z,5.20
2023-02-01T02:26:51.606Z,5.21
2023-02-01T02:27:51.566Z,5.20
2023-02-01T02:28:51.555Z,5.18
2023-02-01T02:29:51.555Z,5.20
2023-02-01T02:30:51.636Z,5.15
2023-02-01T02:31:51.555Z,5.15
2023-02-01T02:32:51.558Z,5.17
2023-02-01T02:33:51.523Z,5.15
2023-02-01T02:34:51.501Z,5.15
2023-02-01T02:35:51.480Z,5.18
2023-02-01T02:36:51.497Z,5.21
2023-02-01T02:37:51.478Z,5.20
2023-02-01T02:38:51.494Z,5.20
2023-02-01T02:39:51.466Z,5.17
2023-02-01T02:40:51.423Z,5.15
2023-02-01T02:41:51.437Z,5.15
2023-02-01T02:42:51.427Z,5.17
2023-02-01T02:43:51.453Z,5.12
2023-02-01T02:44:51.415Z,5.13
2023-02-01T02:45:51.412Z,5.12
2023-02-01T02:46:51.395Z,5.12
2023-02-01T02:47:51.383Z,5.13
2023-02-01T02:48:51.388Z,5.17
2023-02-01T02:49:51.345Z,5.15
2023-02-01T02:50:51.344Z,5.15
2023-02-01T02:51:51.337Z,5.15
2023-02-01T02:52:51.329Z,5.13
2023-02-01T02:53:51.349Z,5.13
2023-02-01T02:54:51.307Z,5.13
2023-02-01T02:55:51.310Z,5.13
2023-02-01T02:56:51.280Z,5.12
2023-02-01T02:57:51.286Z,5.15
2023-02-01T02:58:51.291Z,5.15
2023-02-01T02:59:51.259Z,5.17
2023-02-01T03:00:51.363Z,5.17
2023-02-01T03:01:51.211Z,5.17
2023-02-01T03:02:51.285Z,5.13
2023-02-01T03:03:51.250Z,5.17
2023-02-01T03:04:51.191Z,5.18
2023-02-01T03:05:51.210Z,5.17
2023-02-01T03:06:51.183Z,5.17
2023-02-01T03:07:51.160Z,5.17
2023-02-01T03:08:51.180Z,5.15
2023-02-01T03:09:51.171Z,5.15
2023-02-01T03:10:51.155Z,5.15
2023-02-01T03:11:51.130Z,5.15
2023-02-01T03:12:51.123Z,5.17
2023-02-01T03:13:51.118Z,5.15
2023-02-01T03:14:51.081Z,5.17
2023-02-01T03:15:51.097Z,5.17
2023-02-01T03:16:51.103Z,5.13
2023-02-01T03:17:51.072Z,5.17
2023-02-01T03:18:51.080Z,5.15
2023-02-01T03:19:51.160Z,5.13
2023-02-01T03:20:51.062Z,5.17
2023-02-01T03:21:51.042Z,5.18
2023-02-01T03:22:51.030Z,5.20
2023-02-01T03:23:50.981Z,5.21
2023-02-01T03:24:51.022Z,5.18
2023-02-01T03:25:50.998Z,5.18
2023-02-01T03:26:51.045Z,5.21
2023-02-01T03:27:50.982Z,5.21
2023-02-01T03:28:51.045Z,5.21
2023-02-01T03:29:50.972Z,5.20
2023-02-01T03:30:50.968Z,5.17
2023-02-01T03:31:50.966Z,5.18
2023-02-01T03:32:50.913Z,5.18
2023-02-01T03:33:50.903Z,5.21
2023-02-01T03:34:50.918Z,5.22
2023-02-01T03:35:50.884Z,5.21
2023-02-01T03:36:50.871Z,5.21
2023-02-01T03:37:50.865Z,5.22
2023-02-01T03:38:50.843Z,5.24
2023-02-01T03:39:51.167Z,5.25
2023-02-01T03:40:51.038Z,5.24
2023-02-01T03:41:50.950Z,5.22
2023-02-01T03:42:50.979Z,5.25
2023-02-01T03:43:50.837Z,5.24
2023-02-01T03:44:50.831Z,5.22
2023-02-01T03:45:50.832Z,5.24
2023-02-01T03:46:50.770Z,5.22
2023-02-01T03:47:50.746Z,5.21
2023-02-01T03:48:50.738Z,5.24
2023-02-01T03:49:50.780Z,5.24
2023-02-01T03:50:50.761Z,5.25
2023-02-01T03:51:50.804Z,5.27
2023-02-01T03:52:50.704Z,5.25
2023-02-01T03:53:50.685Z,5.30
2023-02-01T03:54:50.694Z,5.30
2023-02-01T03:55:50.689Z,5.33
2023-02-01T03:56:50.667Z,5.36
2023-02-01T03:57:50.653Z,5.36
2023-02-01T03:58:50.658Z,5.35
2023-02-01T03:59:50.663Z,5.33
2023-02-01T04:00:50.820Z,5.33
2023-02-01T04:01:50.789Z,5.35
2023-02-01T04:02:50.832Z,5.35
2023-02-01T04:03:50.597Z,5.33
2023-02-01T04:04:50.566Z,5.36
2023-02-01T04:05:50.622Z,5.39
2023-02-01T04:06:50.659Z,5.36
2023-02-01T04:07:50.594Z,5.35
2023-02-01T04:08:50.567Z,5.31
2023-02-01T04:09:50.547Z,5.31
2023-02-01T04:10:50.547Z,5.36
2023-02-01T04:11:50.544Z,5.39
2023-02-01T04:12:50.556Z,5.40
2023-02-01T04:13:50.509Z,5.40
2023-02-01T04:14:50.475Z,5.40
2023-02-01T04:15:50.488Z,5.42
2023-02-01T04:16:50.471Z,5.42
2023-02-01T04:17:50.481Z,5.42
2023-02-01T04:18:50.460Z,5.43
2023-02-01T04:19:50.448Z,5.45
2023-02-01T04:20:50.542Z,5.48
2023-02-01T04:21:50.425Z,5.53
2023-02-01T04:22:50.431Z,5.56
2023-02-01T04:23:50.402Z,5.56
2023-02-01T04:24:50.404Z,5.51
2023-02-01T04:25:50.415Z,5.54
2023-02-01T04:26:50.439Z,5.53
2023-02-01T04:27:50.366Z,5.54
2023-02-01T04:28:50.331Z,5.57
2023-02-01T04:29:50.320Z,5.56
2023-02-01T04:30:50.396Z,5.57
2023-02-01T04:31:50.466Z,5.57
2023-02-01T04:32:50.300Z,5.57
2023-02-01T04:33:50.272Z,5.57
2023-02-01T04:34:50.270Z,5.58
2023-02-01T04:35:50.309Z,5.57
2023-02-01T04:36:50.388Z,5.57
2023-02-01T04:37:50.280Z,5.57
2023-02-01T04:38:50.232Z,5.58
2023-02-01T04:39:50.212Z,5.60
2023-02-01T04:40:50.210Z,5.63
2023-02-01T04:41:50.233Z,5.64
2023-02-01T04:42:50.185Z,5.65
2023-02-01T04:43:50.173Z,5.65
2023-02-01T04:44:50.180Z,5.63
2023-02-01T04:45:50.250Z,5.65
2023-02-01T04:46:50.160Z,5.68
2023-02-01T04:47:50.159Z,5.67
2023-02-01T04:48:50.118Z,5.68
2023-02-01T04:49:50.117Z,5.72
2023-02-01T04:50:50.135Z,5.74
2023-02-01T04:51:50.114Z,5.74
2023-02-01T04:52:50.101Z,5.74
2023-02-01T04:53:50.086Z,5.74
2023-02-01T04:54:50.092Z,5.75
2023-02-01T04:55:50.075Z,5.76
2023-02-01T04:56:50.041Z,5.75
2023-02-01T04:57:50.126Z,5.76
2023-02-01T04:58:50.054Z,5.74
2023-02-01T04:59:50.023Z,5.78
2023-02-01T05:00:50.014Z,5.81
2023-02-01T05:01:49.985Z,5.79
2023-02-01T05:02:49.992Z,5.79
2023-02-01T05:03:49.990Z,5.79
2023-02-01T05:04:50.028Z,5.82
2023-02-01T05:05:49.987Z,5.81
2023-02-01T05:06:49.936Z,5.82
2023-02-01T05:07:49.963Z,5.82
2023-02-01T05:08:49.919Z,5.85
2023-02-01T05:09:49.937Z,5.85
2023-02-01T05:10:49.941Z,5.85
2023-02-01T05:11:49.934Z,5.85
2023-02-01T05:12:49.890Z,5.85
2023-02-01T05:13:49.890Z,5.85
2023-02-01T05:14:49.880Z,5.89
2023-02-01T05:15:49.896Z,5.85
2023-02-01T05:16:49.870Z,5.86
2023-02-01T05:17:49.826Z,5.86
2023-02-01T05:18:49.838Z,5.89
2023-02-01T05:19:49.809Z,5.90
2023-02-01T05:20:49.822Z,5.90
2023-02-01T05:21:49.820Z,5.89
2023-02-01T05:22:49.779Z,5.89
2023-02-01T05:23:49.766Z,5.89
2023-02-01T05:24:49.758Z,5.90
2023-02-01T05:25:49.747Z,5.90
2023-02-01T05:26:49.887Z,5.90
2023-02-01T05:27:49.746Z,5.93
2023-02-01T05:28:49.721Z,5.91
2023-02-01T05:29:49.756Z,5.94
2023-02-01T05:30:49.770Z,5.94
2023-02-01T05:31:49.781Z,5.94
2023-02-01T05:32:49.679Z,5.93
2023-02-01T05:33:49.661Z,5.93
2023-02-01T05:34:49.726Z,5.93
2023-02-01T05:35:49.647Z,5.93
2023-02-01T05:36:49.650Z,5.97
2023-02-01T05:37:49.709Z,5.97
2023-02-01T05:38:49.643Z,5.94
2023-02-01T05:39:49.659Z,5.99
2023-02-01T05:40:49.599Z,5.97
2023-02-01T05:41:49.650Z,6.00
2023-02-01T05:42:49.631Z,5.99
2023-02-01T05:43:49.600Z,6.00
2023-02-01T05:44:49.561Z,6.01
2023-02-01T05:45:49.566Z,6.00
2023-02-01T05:46:50.244Z,6.00
2023-02-01T05:47:49.630Z,5.99
2023-02-01T05:48:49.546Z,6.00
2023-02-01T05:49:49.552Z,6.00
2023-02-01T05:50:49.513Z,5.99
2023-02-01T05:51:49.494Z,6.01
2023-02-01T05:52:49.529Z,6.00
2023-02-01T05:53:49.550Z,6.01
2023-02-01T05:54:49.443Z,6.06
2023-02-01T05:55:50.128Z,6.01
2023-02-01T05:56:49.449Z,6.01
2023-02-01T05:57:49.575Z,6.00
2023-02-01T05:58:49.423Z,5.99
2023-02-01T05:59:50.081Z,6.03
2023-02-01T06:00:49.415Z,6.01
2023-02-01T06:01:49.447Z,6.01
2023-02-01T06:02:49.413Z,6.01
2023-02-01T06:03:49.460Z,6.00
2023-02-01T06:04:49.352Z,6.00
2023-02-01T06:05:49.383Z,6.03
2023-02-01T06:06:49.373Z,6.01
2023-02-01T06:07:49.414Z,6.01
2023-02-01T06:08:49.336Z,6.01
2023-02-01T06:09:49.331Z,6.01
2023-02-01T06:10:49.316Z,5.99
2023-02-01T06:11:49.397Z,5.99
2023-02-01T06:12:49.257Z,6.00
2023-02-01T06:13:49.280Z,6.00
2023-02-01T06:14:49.239Z,6.00
2023-02-01T06:15:49.368Z,6.00
2023-02-01T06:16:49.184Z,6.00
2023-02-01T06:17:49.204Z,6.00
2023-02-01T06:18:49.205Z,5.97
2023-02-01T06:19:49.145Z,5.97
2023-02-01T06:20:49.845Z,5.96
2023-02-01T06:21:49.135Z,5.94
2023-02-01T06:22:49.224Z,5.91
2023-02-01T06:23:49.170Z,5.89
2023-02-01T06:24:49.161Z,5.89
2023-02-01T06:25:49.119Z,5.86
2023-02-01T06:26:49.166Z,5.86
2023-02-01T06:27:49.100Z,5.85
2023-02-01T06:28:49.109Z,5.83
2023-02-01T06:29:49.057Z,5.83
2023-02-01T06:30:49.114Z,5.85
2023-02-01T06:31:49.079Z,5.83
2023-02-01T06:32:49.048Z,5.82
2023-02-01T06:33:49.077Z,5.82
2023-02-01T06:34:49.097Z,5.76
2023-02-01T06:35:49.010Z,5.76
2023-02-01T06:36:48.968Z,5.75
2023-02-01T06:37:49.238Z,5.75
2023-02-01T06:38:48.969Z,5.72
2023-02-01T06:39:49.027Z,5.71
2023-02-01T06:40:48.971Z,5.72
2023-02-01T06:41:48.916Z,5.68
2023-02-01T06:42:48.894Z,5.68
2023-02-01T06:43:48.944Z,5.65
2023-02-01T06:44:48.881Z,5.68
2023-02-01T06:45:48.870Z,5.68
2023-02-01T06:46:48.982Z,5.67
2023-02-01T06:47:48.869Z,5.67
2023-02-01T06:48:48.873Z,5.67
2023-02-01T06:49:48.924Z,5.67
2023-02-01T06:50:48.974Z,5.64
2023-02-01T06:51:48.833Z,5.67
2023-02-01T06:52:48.826Z,5.68
2023-02-01T06:53:48.801Z,5.67
2023-02-01T06:54:48.812Z,5.64
2023-02-01T06:55:48.774Z,5.65
2023-02-01T06:56:48.831Z,5.68
2023-02-01T06:57:48.771Z,5.64
2023-02-01T06:58:48.785Z,5.65
2023-02-01T06:59:48.755Z,5.65
2023-02-01T07:00:48.790Z,5.68
2023-02-01T07:01:48.755Z,5.68
2023-02-01T07:02:48.728Z,5.67
2023-02-01T07:03:48.723Z,5.67
2023-02-01T07:04:48.711Z,5.71
2023-02-01T07:05:50.203Z,5.72
2023-02-01T07:06:48.663Z,5.72
2023-02-01T07:07:48.675Z,5.72
2023-02-01T07:08:48.661Z,5.72
2023-02-01T07:09:48.619Z,5.75
2023-02-01T07:10:49.073Z,5.75
2023-02-01T07:11:48.619Z,5.76
2023-02-01T07:12:48.621Z,5.78
2023-02-01T07:13:48.632Z,5.79
2023-02-01T07:14:49.253Z,5.81
2023-02-01T07:15:48.594Z,5.81
2023-02-01T07:16:48.551Z,5.79
2023-02-01T07:17:48.616Z,5.79
2023-02-01T07:18:48.679Z,5.79
2023-02-01T07:19:48.688Z,5.78
2023-02-01T07:20:48.649Z,5.76
2023-02-01T07:21:48.501Z,5.75
2023-02-01T07:22:48.518Z,5.75
2023-02-01T07:23:49.452Z,5.72
2023-02-01T07:24:48.518Z,5.75
2023-02-01T07:25:52.616Z,5.75
2023-02-01T07:26:48.510Z,5.75
2023-02-01T07:27:48.610Z,5.78
2023-02-01T07:28:48.514Z,5.79
2023-02-01T07:29:48.592Z,5.76
2023-02-01T07:30:48.457Z,5.75
2023-02-01T07:31:49.382Z,5.76
2023-02-01T07:32:48.418Z,5.75
2023-02-01T07:33:48.477Z,5.76
2023-02-01T07:34:48.399Z,5.72
2023-02-01T07:35:48.400Z,5.75
2023-02-01T07:36:48.389Z,5.78
2023-02-01T07:37:48.406Z,5.78
2023-02-01T07:38:48.392Z,5.81
2023-02-01T07:39:48.388Z,5.81
2023-02-01T07:40:48.342Z,5.82
2023-02-01T07:41:48.365Z,5.81
2023-02-01T07:42:48.330Z,5.85
2023-02-01T07:43:48.284Z,5.82
2023-02-01T07:44:48.317Z,5.81
2023-02-01T07:45:48.342Z,5.81
2023-02-01T07:46:48.260Z,5.78
2023-02-01T07:47:48.291Z,5.78
2023-02-01T07:48:48.237Z,5.75
2023-02-01T07:49:48.276Z,5.76
2023-02-01T07:50:48.230Z,5.76
2023-02-01T07:51:48.248Z,5.75
2023-02-01T07:52:52.075Z,5.68
2023-02-01T07:53:48.223Z,5.65
2023-02-01T07:54:48.223Z,5.64
2023-02-01T07:55:48.159Z,5.56
2023-02-01T07:56:48.185Z,5.49
2023-02-01T07:57:48.338Z,5.42
2023-02-01T07:58:48.178Z,5.38
2023-02-01T07:59:48.163Z,5.33
2023-02-01T08:00:48.175Z,5.30
2023-02-01T08:01:48.091Z,5.30
2023-02-01T08:03:21.848Z,5.28
2023-02-01T08:04:23.696Z,5.28
2023-02-01T08:05:23.756Z,5.27
2023-02-01T08:06:21.947Z,5.27
2023-02-01T08:07:21.935Z,5.21
2023-02-01T08:08:21.917Z,5.12
2023-02-01T08:09:21.914Z,5.07
2023-02-01T08:10:22.226Z,5.02
2023-02-01T08:11:21.872Z,4.97
2023-02-01T08:12:21.870Z,5.00
2023-02-01T08:13:21.886Z,5.00
2023-02-01T08:14:21.888Z,4.97
2023-02-01T08:15:21.826Z,4.94
2023-02-01T08:16:21.838Z,4.94
2023-02-01T08:17:21.816Z,4.92
2023-02-01T08:18:21.799Z,4.88
2023-02-01T08:19:21.788Z,4.88
2023-02-01T08:20:22.248Z,4.85
2023-02-01T08:21:21.778Z,4.78
2023-02-01T08:22:21.738Z,4.75
2023-02-01T08:23:21.730Z,4.72
2023-02-01T08:24:21.821Z,4.72
2023-02-01T08:25:21.827Z,4.72
2023-02-01T08:26:21.793Z,4.70
2023-02-01T08:27:21.716Z,4.72
2023-02-01T08:28:21.682Z,4.67
2023-02-01T08:29:21.709Z,4.72
2023-02-01T08:30:22.154Z,4.75
2023-02-01T08:31:21.781Z,4.73
2023-02-01T08:32:21.679Z,4.73
2023-02-01T08:33:21.648Z,4.75
2023-02-01T08:34:21.638Z,4.72
2023-02-01T08:35:25.773Z,4.75
2023-02-01T08:36:22.671Z,4.70
2023-02-01T08:37:21.606Z,4.69
2023-02-01T08:38:21.605Z,4.66
2023-02-01T08:39:21.603Z,4.65
2023-02-01T08:40:21.936Z,4.60
2023-02-01T08:41:21.571Z,4.60
2023-02-01T08:42:21.583Z,4.60
2023-02-01T08:43:21.529Z,4.62
2023-02-01T08:44:21.530Z,4.62
2023-02-01T08:45:21.546Z,4.63
2023-02-01T08:46:21.565Z,4.62
2023-02-01T08:47:21.499Z,4.63
2023-02-01T08:48:21.494Z,4.63
2023-02-01T08:49:21.460Z,4.60
2023-02-01T08:50:21.856Z,4.60
2023-02-01T08:51:21.466Z,4.63
2023-02-01T08:52:21.457Z,4.60
2023-02-01T08:53:21.482Z,4.63
2023-02-01T08:54:21.472Z,4.65
2023-02-01T08:55:21.450Z,4.67
2023-02-01T08:56:21.695Z,4.66
2023-02-01T08:57:21.508Z,4.65
2023-02-01T08:58:21.393Z,4.65
2023-02-01T08:59:21.403Z,4.63
2023-02-01T09:00:21.809Z,4.60
2023-02-01T09:01:21.380Z,4.65
2023-02-01T09:02:21.346Z,4.66
2023-02-01T09:03:21.355Z,4.66
2023-02-01T09:04:21.378Z,4.67
2023-02-01T09:05:21.341Z,4.69
2023-02-01T09:06:21.291Z,4.69
2023-02-01T09:07:21.321Z,4.70
2023-02-01T09:08:21.297Z,4.70
2023-02-01T09:09:21.281Z,4.72
2023-02-01T09:10:33.649Z,4.72
2023-02-01T09:11:22.289Z,4.73
2023-02-01T09:12:21.267Z,4.72
2023-02-01T09:13:21.231Z,4.73
2023-02-01T09:14:21.205Z,4.75
2023-02-01T09:15:21.265Z,4.77
2023-02-01T09:16:21.258Z,4.82
2023-02-01T09:17:21.219Z,4.84
2023-02-01T09:18:21.196Z,4.88
2023-02-01T09:19:26.227Z,4.88
2023-02-01T09:20:22.522Z,4.88
2023-02-01T09:21:21.155Z,4.92
2023-02-01T09:22:21.145Z,4.96
2023-02-01T09:23:21.134Z,5.00
2023-02-01T09:24:21.136Z,5.06
2023-02-01T09:25:21.156Z,5.09
2023-02-01T09:26:26.528Z,5.09
2023-02-01T09:27:22.089Z,5.12
2023-02-01T09:28:21.116Z,5.15
2023-02-01T09:29:21.073Z,5.10
2023-02-01T09:30:21.195Z,5.09
2023-02-01T09:31:21.143Z,5.09
2023-02-01T09:32:21.174Z,5.12
2023-02-01T09:33:21.028Z,5.10
2023-02-01T09:34:21.038Z,5.10
2023-02-01T09:35:21.063Z,5.09
2023-02-01T09:36:21.026Z,5.12
2023-02-01T09:37:21.007Z,5.12
2023-02-01T09:38:20.971Z,5.13
2023-02-01T09:39:20.979Z,5.13
2023-02-01T09:40:21.594Z,5.15
2023-02-01T09:41:21.026Z,5.15
2023-02-01T09:42:21.093Z,5.18
2023-02-01T09:43:20.939Z,5.18
2023-02-01T09:44:20.959Z,5.17
2023-02-01T09:45:20.908Z,5.20
2023-02-01T09:46:20.942Z,5.21
2023-02-01T09:47:20.875Z,5.20
2023-02-01T09:48:20.884Z,5.21
2023-02-01T09:49:20.861Z,5.21
2023-02-01T09:50:21.365Z,5.21
2023-02-01T09:51:20.860Z,5.20
2023-02-01T09:52:20.815Z,5.18
2023-02-01T09:53:20.858Z,5.20
2023-02-01T09:54:20.817Z,5.21
2023-02-01T09:55:20.819Z,5.22
2023-02-01T09:56:21.753Z,5.24
2023-02-01T09:57:20.785Z,5.25
2023-02-01T09:58:20.838Z,5.24
2023-02-01T09:59:20.779Z,5.24
2023-02-01T10:00:20.829Z,5.25
2023-02-01T10:01:20.776Z,5.28
2023-02-01T10:02:20.722Z,5.25
2023-02-01T10:03:20.749Z,5.25
2023-02-01T10:04:20.710Z,5.27
2023-02-01T10:05:20.740Z,5.24
2023-02-01T10:06:20.708Z,5.24
2023-02-01T10:07:20.671Z,5.22
2023-02-01T10:08:20.713Z,5.21
2023-02-01T10:09:20.689Z,5.22
2023-02-01T10:10:20.722Z,5.24
2023-02-01T10:11:20.643Z,5.25
2023-02-01T10:12:20.730Z,5.24
2023-02-01T10:13:20.638Z,5.27
2023-02-01T10:14:20.596Z,5.21
2023-02-01T10:15:20.678Z,5.06
2023-02-01T10:16:20.716Z,4.99
2023-02-01T10:17:20.558Z,4.94
2023-02-01T10:18:20.566Z,4.89
2023-02-01T10:19:20.554Z,4.91
2023-02-01T10:20:20.617Z,4.91
2023-02-01T10:21:20.596Z,4.91
2023-02-01T10:22:20.543Z,4.88
2023-02-01T10:23:33.530Z,4.89
2023-02-01T10:24:21.541Z,4.92
2023-02-01T10:25:20.544Z,4.94
2023-02-01T10:26:20.537Z,4.94
2023-02-01T10:27:20.480Z,4.97
2023-02-01T10:28:20.476Z,4.97
2023-02-01T10:29:20.481Z,4.96
2023-02-01T10:30:20.580Z,4.97
2023-02-01T10:31:20.540Z,5.02
2023-02-01T10:32:20.449Z,5.04
2023-02-01T10:33:20.405Z,5.07
2023-02-01T10:34:20.393Z,5.09
2023-02-01T10:35:20.408Z,5.09
2023-02-01T10:36:20.418Z,5.13
2023-02-01T10:37:20.389Z,5.17
2023-02-01T10:38:20.370Z,5.21
2023-02-01T10:39:20.376Z,5.25
2023-02-01T10:40:20.473Z,5.25
2023-02-01T10:41:20.314Z,5.33
2023-02-01T10:42:20.348Z,5.40
2023-02-01T10:43:20.321Z,5.39
2023-02-01T10:44:20.288Z,5.43
2023-02-01T10:45:20.281Z,5.46
2023-02-01T10:46:20.349Z,5.51
2023-02-01T10:47:20.261Z,5.46
2023-02-01T10:48:20.264Z,5.46
2023-02-01T10:49:20.264Z,5.45
2023-02-01T10:50:20.286Z,5.45
2023-02-01T10:51:20.368Z,5.43
2023-02-01T10:52:21.429Z,5.45
2023-02-01T10:53:20.208Z,5.40
2023-02-01T10:54:20.226Z,5.36
2023-02-01T10:55:20.182Z,5.33
2023-02-01T10:56:20.260Z,5.31
2023-02-01T10:57:20.214Z,5.33
2023-02-01T10:58:20.203Z,5.30
2023-02-01T10:59:20.168Z,5.27
2023-02-01T11:00:20.465Z,5.24
2023-02-01T11:01:20.227Z,5.21
2023-02-01T11:02:20.129Z,5.13
2023-02-01T11:03:20.167Z,5.13
2023-02-01T11:04:20.127Z,5.13
2023-02-01T11:05:20.110Z,5.18
2023-02-01T11:06:20.139Z,5.13
2023-02-01T11:07:20.426Z,5.12
2023-02-01T11:08:20.061Z,5.15
2023-02-01T11:09:20.083Z,5.15
2023-02-01T11:10:20.045Z,5.17
2023-02-01T11:11:20.487Z,5.22
2023-02-01T11:12:20.030Z,5.27
2023-02-01T11:13:20.002Z,5.31
2023-02-01T11:14:20.022Z,5.39
2023-02-01T11:15:19.971Z,5.43
2023-02-01T11:16:20.023Z,5.42
2023-02-01T11:17:20.000Z,5.40
2023-02-01T11:18:19.952Z,5.46
2023-02-01T11:19:19.987Z,5.45
2023-02-01T11:20:19.937Z,5.43
2023-02-01T11:21:19.905Z,5.46
2023-02-01T11:22:19.914Z,5.49
2023-02-01T11:23:19.925Z,5.54
2023-02-01T11:24:20.087Z,5.57
2023-02-01T11:25:19.971Z,5.57
2023-02-01T11:26:19.913Z,5.63
2023-02-01T11:27:27.088Z,5.76
2023-02-01T11:28:20.877Z,5.86
2023-02-01T11:29:20.043Z,5.81
2023-02-01T11:30:19.863Z,5.85
2023-02-01T11:31:19.849Z,5.81
2023-02-01T11:32:19.812Z,5.85
2023-02-01T11:33:19.835Z,6.00
2023-02-01T11:34:19.800Z,6.12
2023-02-01T11:35:19.770Z,6.06
2023-02-01T11:36:19.773Z,6.06
2023-02-01T11:37:19.795Z,6.12
2023-02-01T11:38:19.761Z,6.27
2023-02-01T11:39:19.757Z,6.17
2023-02-01T11:40:19.742Z,6.28
2023-02-01T11:41:19.712Z,6.36
2023-02-01T11:42:19.728Z,6.36
2023-02-01T11:43:19.723Z,6.37
2023-02-01T11:44:19.738Z,6.30
2023-02-01T11:45:19.710Z,6.22
2023-02-01T11:46:19.720Z,6.21
2023-02-01T11:47:19.657Z,6.18
2023-02-01T11:48:26.802Z,6.22
2023-02-01T11:49:20.681Z,6.28
2023-02-01T11:50:19.709Z,6.28
2023-02-01T11:51:19.617Z,6.34
2023-02-01T11:52:19.591Z,6.30
2023-02-01T11:53:19.596Z,6.31
2023-02-01T11:54:19.667Z,6.36
2023-02-01T11:55:19.622Z,6.38
2023-02-01T11:56:19.559Z,6.49
2023-02-01T11:57:19.537Z,6.51
2023-02-01T11:58:19.556Z,6.55
2023-02-01T11:59:19.531Z,6.61
2023-02-01T12:00:19.534Z,6.55
2023-02-01T12:01:19.489Z,6.58
2023-02-01T12:02:19.566Z,6.62
2023-02-01T12:03:19.564Z,6.61
2023-02-01T12:04:19.513Z,6.66
2023-02-01T12:05:19.525Z,6.64
2023-02-01T12:06:19.447Z,6.71
2023-02-01T12:07:19.462Z,6.73
2023-02-01T12:08:19.469Z,6.79
2023-02-01T12:09:19.434Z,6.79
2023-02-01T12:10:19.443Z,6.76
2023-02-01T12:11:19.469Z,6.81
2023-02-01T12:12:19.367Z,6.85
2023-02-01T12:13:19.398Z,6.92
2023-02-01T12:14:19.651Z,6.97
2023-02-01T12:15:19.407Z,7.02
2023-02-01T12:16:19.846Z,7.10
2023-02-01T12:17:19.338Z,7.16
2023-02-01T12:18:19.351Z,7.15
2023-02-01T12:19:19.337Z,7.12
2023-02-01T12:20:19.339Z,7.10
2023-02-01T12:21:19.318Z,7.05
2023-02-01T12:22:19.326Z,7.03
2023-02-01T12:23:19.312Z,6.99
2023-02-01T12:24:19.258Z,6.98
2023-02-01T12:25:19.325Z,7.02
2023-02-01T12:26:20.293Z,6.99
2023-02-01T12:27:19.248Z,6.99
2023-02-01T12:28:19.202Z,6.98
2023-02-01T12:29:19.200Z,6.97
2023-02-01T12:30:19.248Z,6.97
2023-02-01T12:31:19.224Z,6.95
2023-02-01T12:32:19.206Z,6.89
2023-02-01T12:33:19.183Z,6.84
2023-02-01T12:34:19.184Z,6.81
2023-02-01T12:35:19.188Z,6.80
2023-02-01T12:36:19.148Z,6.81
2023-02-01T12:37:19.142Z,6.81
2023-02-01T12:38:19.179Z,6.80
2023-02-01T12:39:19.129Z,6.80
2023-02-01T12:40:19.122Z,6.79
2023-02-01T12:41:19.079Z,6.79
2023-02-01T12:42:19.073Z,6.80
2023-02-01T12:43:19.076Z,6.77
2023-02-01T12:44:19.085Z,6.77
2023-02-01T12:45:19.055Z,6.76
2023-02-01T12:46:19.015Z,6.77
2023-02-01T12:47:19.032Z,6.76
2023-02-01T12:48:19.020Z,6.76
2023-02-01T12:49:19.037Z,6.76
2023-02-01T12:50:19.017Z,6.76
2023-02-01T12:51:18.991Z,6.77
2023-02-01T12:52:18.977Z,6.80
2023-02-01T12:53:19.008Z,6.85
2023-02-01T12:54:18.952Z,6.88
2023-02-01T12:55:18.970Z,6.87
2023-02-01T12:56:18.957Z,6.88
2023-02-01T12:57:18.925Z,6.89
2023-02-01T12:58:18.912Z,6.97
2023-02-01T12:59:18.911Z,6.97
2023-02-01T13:00:18.895Z,6.99
2023-02-01T13:01:18.953Z,7.03
2023-02-01T13:02:19.001Z,7.03
2023-02-01T13:03:18.871Z,7.06
2023-02-01T13:04:18.848Z,7.09
2023-02-01T13:05:18.862Z,7.13
2023-02-01T13:06:18.865Z,7.12
2023-02-01T13:07:18.810Z,7.09
2023-02-01T13:08:18.791Z,7.13
2023-02-01T13:09:18.885Z,7.17
2023-02-01T13:10:18.804Z,7.17
2023-02-01T13:11:18.832Z,7.13
2023-02-01T13:12:18.760Z,7.13
2023-02-01T13:13:18.760Z,7.13
2023-02-01T13:14:18.740Z,7.17
2023-02-01T13:15:18.765Z,7.20
2023-02-01T13:16:19.316Z,7.13
2023-02-01T13:17:18.765Z,7.15
2023-02-01T13:18:18.758Z,7.13
2023-02-01T13:19:18.704Z,7.12